Time;durP1;ratioP1;P1;durP2;ratioP2;P2;SDS_P1;SDS_P2;PMS_P1;PMS_P2;Temp;Humidity;BMP_temperature;BMP_pressure;BME280_temperature;BME280_humidity;BME280_pressure;Samples;Min_cycle;Max_cycle;Signal;HPM_P1;HPM_P2
2022/07/26 00:00:18;;;;;;;11.43;4.63;;;18.50;99.90;;;;;;5075542;28;20079;-75
2022/07/26 00:02:45;;;;;;;10.80;3.45;;;18.50;99.90;;;;;;5070088;28;20047;-75
2022/07/26 00:05:10;;;;;;;5.22;2.88;;;18.50;99.90;;;;;;5077263;28;20080;-73
2022/07/26 00:07:36;;;;;;;11.07;3.97;;;18.50;99.90;;;;;;5070188;28;20165;-75
2022/07/26 00:10:04;;;;;;;5.88;2.55;;;18.50;99.90;;;;;;5074913;28;20130;-75
2022/07/26 00:12:30;;;;;;;13.35;3.75;;;18.40;99.90;;;;;;5074338;28;20072;-74
2022/07/26 00:14:56;;;;;;;6.65;3.67;;;18.40;99.90;;;;;;5074531;28;20719;-75
2022/07/26 00:17:21;;;;;;;11.10;3.22;;;18.40;99.90;;;;;;5074618;28;20052;-76
2022/07/26 00:19:47;;;;;;;8.25;3.30;;;18.40;99.90;;;;;;5074945;28;20428;-75
2022/07/26 00:24:57;;;;;;;9.68;3.28;;;18.30;99.90;;;;;;5073536;28;20145;-74
2022/07/26 00:27:23;;;;;;;7.03;3.38;;;18.40;99.90;;;;;;5072185;28;20496;-75
2022/07/26 00:29:48;;;;;;;12.48;3.53;;;18.30;99.90;;;;;;5075567;28;20047;-75
2022/07/26 00:32:14;;;;;;;10.70;3.25;;;18.30;99.90;;;;;;5071830;28;20876;-76
2022/07/26 00:34:40;;;;;;;10.63;4.22;;;18.30;99.90;;;;;;5074982;28;20181;-73
2022/07/26 00:37:05;;;;;;;14.77;4.22;;;18.30;99.90;;;;;;5075017;28;20066;-75
2022/07/26 00:39:31;;;;;;;12.45;4.65;;;18.30;99.90;;;;;;5072695;28;20048;-74
2022/07/26 00:41:57;;;;;;;9.48;2.85;;;18.30;99.90;;;;;;5073865;28;20044;-74
2022/07/26 00:44:22;;;;;;;8.98;2.95;;;18.30;99.90;;;;;;5075083;28;20157;-75
2022/07/26 00:46:48;;;;;;;14.85;4.43;;;18.30;99.90;;;;;;5075208;28;20040;-75
2022/07/26 00:49:14;;;;;;;10.32;3.92;;;18.30;99.90;;;;;;5075482;28;20048;-75
2022/07/26 00:51:40;;;;;;;8.00;4.07;;;18.30;99.90;;;;;;5075929;28;20042;-75
2022/07/26 00:54:06;;;;;;;11.13;3.70;;;18.20;99.90;;;;;;5076146;28;20050;-74
2022/07/26 00:56:33;;;;;;;11.38;3.95;;;18.20;99.90;;;;;;5074824;28;20044;-73
2022/07/26 00:58:59;;;;;;;10.93;4.43;;;18.20;99.90;;;;;;5067264;28;20123;-75
2022/07/26 01:01:25;;;;;;;5.97;3.17;;;18.20;99.90;;;;;;5082964;28;20044;-72
2022/07/26 01:03:52;;;;;;;7.68;3.38;;;18.20;99.90;;;;;;5075471;28;20043;-74
2022/07/26 01:06:18;;;;;;;8.85;4.10;;;18.20;99.90;;;;;;5074232;28;20044;-72
2022/07/26 01:08:44;;;;;;;9.52;3.50;;;18.20;99.90;;;;;;5080301;28;20055;-75
2022/07/26 01:11:10;;;;;;;11.38;3.60;;;18.30;99.90;;;;;;5078592;28;20044;-74
2022/07/26 01:13:35;;;;;;;12.90;3.95;;;18.30;99.90;;;;;;5079537;28;20648;-74
2022/07/26 01:16:01;;;;;;;11.13;3.70;;;18.30;99.90;;;;;;5077413;28;20043;-74
2022/07/26 01:18:27;;;;;;;6.30;3.08;;;18.30;99.90;;;;;;5079602;28;20131;-74
2022/07/26 01:20:53;;;;;;;10.55;5.15;;;18.30;99.90;;;;;;5073898;28;20579;-74
2022/07/26 01:23:19;;;;;;;7.38;3.35;;;18.30;99.90;;;;;;5078417;28;20051;-74
2022/07/26 01:25:45;;;;;;;11.13;3.78;;;18.40;99.90;;;;;;5078136;28;20466;-75
2022/07/26 01:28:11;;;;;;;10.38;3.50;;;18.40;99.90;;;;;;5077224;28;20055;-75
2022/07/26 01:30:37;;;;;;;8.02;2.97;;;18.40;99.90;;;;;;5077606;28;20677;-73
2022/07/26 01:33:02;;;;;;;7.75;3.53;;;18.40;99.90;;;;;;5075528;28;20217;-75
2022/07/26 01:35:28;;;;;;;7.38;3.28;;;18.50;99.90;;;;;;5077944;28;20082;-75
2022/07/26 01:37:54;;;;;;;6.00;3.35;;;18.40;99.90;;;;;;5080562;28;20043;-75
2022/07/26 01:40:19;;;;;;;9.73;3.60;;;18.50;99.90;;;;;;5077294;28;20544;-75
2022/07/26 01:42:45;;;;;;;9.02;3.63;;;18.50;99.90;;;;;;5078004;28;20051;-75
2022/07/26 01:45:11;;;;;;;8.15;3.00;;;18.40;99.90;;;;;;5076588;28;20040;-74
2022/07/26 01:47:38;;;;;;;6.07;3.17;;;18.40;99.90;;;;;;5078413;28;20040;-73
2022/07/26 01:50:06;;;;;;;10.88;3.75;;;18.40;99.90;;;;;;5075009;28;20043;-75
2022/07/26 01:52:33;;;;;;;9.13;2.58;;;18.40;99.90;;;;;;5058271;28;20151;-76
2022/07/26 01:54:59;;;;;;;4.00;2.78;;;18.50;99.90;;;;;;5075779;28;20062;-75
2022/07/26 01:57:24;;;;;;;10.07;3.38;;;18.50;99.90;;;;;;5077724;28;20044;-75
2022/07/26 01:59:50;;;;;;;7.50;2.72;;;18.50;99.90;;;;;;5075287;28;20172;-74
2022/07/26 02:02:16;;;;;;;6.95;2.67;;;18.50;99.90;;;;;;5075951;28;20118;-74
2022/07/26 02:04:57;;;;;;;6.68;3.03;;;18.50;99.90;;;;;;5077158;28;20048;-75
2022/07/26 02:07:36;;;;;;;5.40;2.95;;;18.50;99.90;;;;;;5076451;28;20101;-75
2022/07/26 02:10:02;;;;;;;7.35;3.45;;;18.50;99.90;;;;;;5086412;28;20051;-73
2022/07/26 02:12:27;;;;;;;4.68;2.03;;;18.50;99.90;;;;;;5080009;28;20055;-73
2022/07/26 02:14:53;;;;;;;5.82;2.95;;;18.50;99.90;;;;;;5077123;28;20062;-73
2022/07/26 02:17:19;;;;;;;6.57;3.00;;;18.40;99.90;;;;;;5086293;28;20740;-74
2022/07/26 02:19:44;;;;;;;6.45;2.60;;;18.40;99.90;;;;;;5073531;28;20093;-75
2022/07/26 02:22:10;;;;;;;10.13;3.08;;;18.40;99.90;;;;;;5077746;28;20094;-73
2022/07/26 02:24:36;;;;;;;9.60;2.90;;;18.40;99.90;;;;;;5063406;28;20140;-74
2022/07/26 02:27:02;;;;;;;7.45;3.55;;;18.40;99.90;;;;;;5075771;28;20609;-74
2022/07/26 02:29:28;;;;;;;7.25;2.97;;;18.40;99.90;;;;;;5075939;28;20123;-72
2022/07/26 02:31:55;;;;;;;8.77;3.17;;;18.40;99.90;;;;;;5076993;28;20145;-72
2022/07/26 02:34:20;;;;;;;6.10;2.78;;;18.40;99.90;;;;;;5071741;28;20063;-74
2022/07/26 02:36:47;;;;;;;13.95;4.07;;;18.40;99.90;;;;;;5075377;28;20040;-72
2022/07/26 02:39:13;;;;;;;11.27;2.60;;;18.40;99.90;;;;;;5075942;28;20059;-74
2022/07/26 02:41:39;;;;;;;5.30;2.50;;;18.50;99.90;;;;;;5083340;28;20917;-73
2022/07/26 02:44:06;;;;;;;4.15;2.50;;;18.40;99.90;;;;;;5079266;28;20047;-75
2022/07/26 02:46:32;;;;;;;4.78;2.40;;;18.50;99.90;;;;;;5078370;28;20043;-75
2022/07/26 02:49:01;;;;;;;7.43;3.35;;;18.40;99.90;;;;;;5073944;28;20445;-74
2022/07/26 02:51:27;;;;;;;4.20;2.35;;;18.40;99.90;;;;;;5075894;28;20066;-74
2022/07/26 02:53:52;;;;;;;7.38;2.42;;;18.40;99.90;;;;;;5077048;28;20450;-76
2022/07/26 02:56:19;;;;;;;5.18;2.58;;;18.40;99.90;;;;;;5079846;28;20593;-72
2022/07/26 02:58:44;;;;;;;5.00;2.70;;;18.40;99.90;;;;;;5076864;28;20121;-74
2022/07/26 03:01:10;;;;;;;7.72;2.55;;;18.40;99.90;;;;;;5075383;28;20056;-71
2022/07/26 03:03:36;;;;;;;5.57;2.60;;;18.40;99.90;;;;;;5076808;28;20071;-71
2022/07/26 03:06:02;;;;;;;6.07;2.17;;;18.30;99.90;;;;;;5074992;28;20048;-72
2022/07/26 03:08:28;;;;;;;2.72;1.63;;;18.20;99.90;;;;;;5075515;28;20097;-72
2022/07/26 03:10:54;;;;;;;3.78;1.90;;;18.10;99.90;;;;;;5074283;28;20051;-71
2022/07/26 03:13:19;;;;;;;2.45;1.63;;;18.00;99.90;;;;;;5068454;28;20192;-71
2022/07/26 03:15:45;;;;;;;2.35;1.63;;;18.00;99.90;;;;;;5075593;28;20036;-72
2022/07/26 03:18:11;;;;;;;2.08;1.88;;;17.90;99.90;;;;;;5074739;28;20102;-71
2022/07/26 03:20:37;;;;;;;2.50;1.70;;;17.90;99.90;;;;;;5074840;28;20039;-72
2022/07/26 03:23:02;;;;;;;2.00;1.65;;;17.90;99.90;;;;;;5073865;28;20044;-71
2022/07/26 03:25:28;;;;;;;7.50;2.13;;;17.90;99.90;;;;;;5074965;28;20163;-72
2022/07/26 03:27:57;;;;;;;1.50;1.40;;;17.90;99.90;;;;;;5074086;28;20048;-72
2022/07/26 03:30:23;;;;;;;4.75;1.67;;;17.80;99.90;;;;;;5074874;28;20487;-72
2022/07/26 03:32:49;;;;;;;2.47;1.58;;;17.80;99.90;;;;;;5056628;28;20044;-71
2022/07/26 03:35:15;;;;;;;2.65;2.08;;;17.80;99.90;;;;;;5085954;28;20049;-73
2022/07/26 03:37:40;;;;;;;4.80;2.00;;;17.80;99.90;;;;;;5074736;28;20152;-71
2022/07/26 03:40:07;;;;;;;4.40;1.67;;;17.80;99.90;;;;;;5073688;28;20035;-72
2022/07/26 03:42:34;;;;;;;2.08;1.60;;;17.70;99.90;;;;;;5077481;28;20562;-72
2022/07/26 03:44:59;;;;;;;2.20;1.40;;;17.70;99.90;;;;;;5077728;28;20044;-72
2022/07/26 03:47:25;;;;;;;2.38;1.90;;;17.70;99.90;;;;;;5073170;28;20059;-73
2022/07/26 03:49:51;;;;;;;4.07;2.13;;;17.70;99.90;;;;;;5072828;28;20048;-72
2022/07/26 03:52:16;;;;;;;3.08;1.77;;;17.70;99.90;;;;;;5072169;28;20035;-71
2022/07/26 03:54:42;;;;;;;4.75;1.77;;;17.70;99.90;;;;;;5071266;28;20062;-71
2022/07/26 03:57:08;;;;;;;6.28;1.90;;;17.70;99.90;;;;;;5072219;28;20563;-71
2022/07/26 03:59:33;;;;;;;3.25;1.50;;;17.70;99.90;;;;;;5072755;28;20816;-71
2022/07/26 04:01:59;;;;;;;4.65;1.98;;;17.70;99.90;;;;;;5071838;28;20889;-71
2022/07/26 04:04:25;;;;;;;5.55;2.10;;;17.70;99.90;;;;;;5073583;28;20057;-72
2022/07/26 04:06:51;;;;;;;3.75;1.83;;;17.70;99.90;;;;;;5073287;28;20400;-72
2022/07/26 04:09:16;;;;;;;17.65;4.15;;;17.70;99.90;;;;;;5072875;28;20101;-71
2022/07/26 04:11:42;;;;;;;12.80;2.83;;;17.60;99.90;;;;;;5073988;28;20083;-73
2022/07/26 04:14:09;;;;;;;3.38;1.40;;;17.60;99.90;;;;;;5072915;28;20173;-72
2022/07/26 04:16:35;;;;;;;2.83;1.80;;;17.50;99.90;;;;;;5074298;28;20240;-72
2022/07/26 04:19:00;;;;;;;2.13;1.23;;;17.40;99.90;;;;;;5075584;28;20601;-73
2022/07/26 04:21:26;;;;;;;3.67;1.52;;;17.30;99.90;;;;;;5073008;28;20040;-73
2022/07/26 04:23:52;;;;;;;10.63;1.92;;;17.30;99.90;;;;;;5072080;28;20190;-72
2022/07/26 04:26:20;;;;;;;7.32;1.70;;;17.20;99.90;;;;;;5072008;28;20815;-73
2022/07/26 04:28:46;;;;;;;4.43;1.40;;;17.30;99.90;;;;;;5073582;28;20127;-72
2022/07/26 04:31:11;;;;;;;6.45;1.70;;;17.30;99.90;;;;;;5075899;28;20896;-72
2022/07/26 04:33:37;;;;;;;3.08;1.42;;;17.30;99.90;;;;;;5074057;28;20043;-72
2022/07/26 04:36:03;;;;;;;6.22;1.50;;;17.40;99.90;;;;;;5075436;28;20086;-72
2022/07/26 04:38:29;;;;;;;1.75;1.40;;;17.40;99.90;;;;;;5071767;28;20082;-73
2022/07/26 04:40:56;;;;;;;5.20;1.50;;;17.40;99.90;;;;;;5073996;28;20143;-72
2022/07/26 04:43:22;;;;;;;3.70;1.48;;;17.40;99.90;;;;;;5080365;28;20048;-72
2022/07/26 04:45:48;;;;;;;2.45;1.33;;;17.40;99.90;;;;;;5077602;28;20040;-72
2022/07/26 04:48:15;;;;;;;6.05;2.75;;;17.50;99.90;;;;;;5077215;28;20106;-72
2022/07/26 04:50:41;;;;;;;4.47;1.77;;;17.50;99.90;;;;;;5077383;28;20044;-72
2022/07/26 04:53:09;;;;;;;3.85;1.60;;;17.60;99.90;;;;;;5076114;28;20055;-71
2022/07/26 04:55:39;;;;;;;4.38;1.23;;;17.60;99.90;;;;;;5076251;28;20735;-72
2022/07/26 04:58:05;;;;;;;2.60;1.30;;;17.60;99.90;;;;;;5074959;28;20051;-72
2022/07/26 05:00:30;;;;;;;2.15;1.30;;;17.60;99.90;;;;;;5076435;28;20540;-73
2022/07/26 05:02:58;;;;;;;3.55;1.10;;;17.60;99.90;;;;;;5077316;28;20118;-73
2022/07/26 05:05:26;;;;;;;4.60;1.60;;;17.50;99.90;;;;;;5077027;28;20492;-73
2022/07/26 05:07:54;;;;;;;2.75;1.10;;;17.60;99.90;;;;;;5076407;28;20090;-73
2022/07/26 05:10:21;;;;;;;2.22;1.20;;;17.60;99.90;;;;;;5075440;28;20044;-72
2022/07/26 05:12:48;;;;;;;1.50;1.13;;;17.60;99.90;;;;;;5075276;28;20909;-71
2022/07/26 05:15:14;;;;;;;2.58;1.30;;;17.60;99.90;;;;;;5078048;28;20082;-72
2022/07/26 05:17:41;;;;;;;2.90;1.00;;;17.70;99.90;;;;;;5076762;28;20135;-71
2022/07/26 05:20:09;;;;;;;3.22;0.95;;;17.60;99.90;;;;;;5078493;28;20147;-73
2022/07/26 05:22:35;;;;;;;4.00;1.50;;;17.50;99.90;;;;;;5075807;28;20095;-73
2022/07/26 05:25:03;;;;;;;4.85;0.93;;;17.50;99.90;;;;;;5076246;28;20071;-72
2022/07/26 05:27:28;;;;;;;3.63;1.13;;;17.50;99.90;;;;;;5075510;28;20174;-73
2022/07/26 05:29:54;;;;;;;3.40;1.35;;;17.50;99.90;;;;;;5076400;28;20036;-73
2022/07/26 05:32:21;;;;;;;2.28;1.17;;;17.50;99.90;;;;;;5072819;28;20143;-73
2022/07/26 05:34:47;;;;;;;2.47;0.98;;;17.60;99.90;;;;;;5073231;28;20047;-72
2022/07/26 05:37:13;;;;;;;3.00;1.02;;;17.60;99.90;;;;;;5066317;28;20102;-73
2022/07/26 05:39:39;;;;;;;4.22;1.42;;;17.60;99.90;;;;;;5067191;28;20910;-72
2022/07/26 05:42:05;;;;;;;7.47;1.20;;;17.70;99.90;;;;;;5070970;28;20631;-73
2022/07/26 05:44:31;;;;;;;2.67;1.25;;;17.70;99.90;;;;;;5071883;28;20048;-73
2022/07/26 05:46:56;;;;;;;2.67;0.88;;;17.70;99.90;;;;;;5072472;28;20040;-73
2022/07/26 05:49:22;;;;;;;2.45;1.10;;;17.70;99.90;;;;;;5071209;28;20158;-73
2022/07/26 05:51:48;;;;;;;3.35;1.13;;;17.70;99.90;;;;;;5072834;28;20397;-73
2022/07/26 05:54:14;;;;;;;1.42;0.90;;;17.60;99.90;;;;;;5072322;28;20861;-72
2022/07/26 05:56:39;;;;;;;1.75;0.57;;;17.50;99.90;;;;;;5071763;28;20574;-71
2022/07/26 05:59:05;;;;;;;2.00;0.80;;;17.40;99.90;;;;;;5070294;28;20121;-73
2022/07/26 06:01:31;;;;;;;6.00;1.05;;;17.20;99.90;;;;;;5071589;28;20131;-72
2022/07/26 06:04:00;;;;;;;1.52;0.95;;;17.20;99.90;;;;;;5071248;28;20427;-72
2022/07/26 06:06:26;;;;;;;1.40;0.95;;;17.20;99.90;;;;;;5071354;28;20036;-72
2022/07/26 06:08:51;;;;;;;3.90;1.02;;;17.30;99.90;;;;;;5072576;28;20044;-74
2022/07/26 06:11:17;;;;;;;3.60;0.93;;;17.30;99.90;;;;;;5071047;28;20051;-73
2022/07/26 06:13:43;;;;;;;2.42;1.08;;;17.30;99.90;;;;;;5070944;28;20055;-72
2022/07/26 06:16:09;;;;;;;3.95;1.10;;;17.20;99.90;;;;;;5071263;28;20093;-72
2022/07/26 06:18:34;;;;;;;2.65;0.70;;;17.20;99.90;;;;;;5067571;28;20044;-74
2022/07/26 06:21:00;;;;;;;5.53;1.20;;;17.30;99.90;;;;;;5069478;28;20916;-71
2022/07/26 06:23:26;;;;;;;2.13;1.38;;;17.30;99.90;;;;;;5071673;28;20926;-74
2022/07/26 06:25:52;;;;;;;4.50;1.02;;;17.50;99.90;;;;;;5068475;28;20805;-73
2022/07/26 06:28:17;;;;;;;2.47;1.08;;;17.50;99.90;;;;;;5069370;28;20600;-72
2022/07/26 06:30:44;;;;;;;1.88;0.95;;;17.50;99.90;;;;;;5068014;28;20048;-72
2022/07/26 06:33:10;;;;;;;2.20;0.90;;;17.60;99.90;;;;;;5072209;28;20048;-73
2022/07/26 06:35:38;;;;;;;3.30;0.85;;;17.90;99.90;;;;;;5075310;28;20040;-73
2022/07/26 06:38:05;;;;;;;2.13;1.00;;;18.00;99.90;;;;;;5073632;28;20055;-73
2022/07/26 06:40:32;;;;;;;1.98;0.80;;;18.10;99.90;;;;;;5074132;28;20050;-72
2022/07/26 06:42:58;;;;;;;3.72;1.10;;;18.10;99.90;;;;;;5075365;28;20095;-72
2022/07/26 06:45:24;;;;;;;2.03;0.80;;;17.90;99.90;;;;;;5074247;28;20047;-74
2022/07/26 06:47:50;;;;;;;3.00;1.83;;;17.90;99.90;;;;;;5073593;28;20889;-72
2022/07/26 06:50:16;;;;;;;2.22;1.02;;;17.80;99.90;;;;;;5068609;28;20048;-72
2022/07/26 06:52:41;;;;;;;2.20;0.93;;;17.60;99.90;;;;;;5074173;28;20481;-73
2022/07/26 06:55:11;;;;;;;2.90;0.88;;;17.60;99.90;;;;;;5073817;28;20040;-73
2022/07/26 06:57:37;;;;;;;3.92;1.10;;;17.70;99.90;;;;;;5076050;28;20151;-74
2022/07/26 07:00:05;;;;;;;6.25;1.30;;;17.70;99.90;;;;;;5072538;28;20055;-73
2022/07/26 07:02:30;;;;;;;2.97;1.33;;;17.60;99.90;;;;;;5076003;28;20254;-71
2022/07/26 07:04:57;;;;;;;3.72;1.70;;;17.50;99.90;;;;;;5077001;28;20067;-74
2022/07/26 07:07:23;;;;;;;3.28;1.38;;;17.50;99.90;;;;;;5069182;28;20040;-74
2022/07/26 07:09:49;;;;;;;2.65;1.08;;;17.50;99.90;;;;;;5077474;28;20043;-72
2022/07/26 07:12:14;;;;;;;3.47;0.98;;;17.40;99.90;;;;;;5075648;28;20044;-75
2022/07/26 07:14:40;;;;;;;5.25;0.90;;;17.50;99.90;;;;;;5074545;28;20129;-73
2022/07/26 07:17:07;;;;;;;3.42;1.15;;;17.60;99.90;;;;;;5074610;28;20036;-73
2022/07/26 07:19:35;;;;;;;1.25;0.85;;;17.80;99.90;;;;;;5075347;28;20840;-73
2022/07/26 07:22:02;;;;;;;2.85;1.00;;;17.90;99.90;;;;;;5074267;28;20044;-73
2022/07/26 07:24:27;;;;;;;2.58;1.08;;;17.90;99.90;;;;;;5070728;28;20066;-73
2022/07/26 07:26:53;;;;;;;1.60;0.98;;;18.10;99.90;;;;;;5071021;28;20044;-74
2022/07/26 07:29:19;;;;;;;4.28;1.42;;;18.20;99.90;;;;;;5074088;28;20047;-73
2022/07/26 07:31:47;;;;;;;4.88;1.10;;;18.30;99.90;;;;;;5072625;28;20040;-73
2022/07/26 07:34:14;;;;;;;1.80;1.38;;;18.50;99.90;;;;;;5073093;28;20060;-74
2022/07/26 07:36:40;;;;;;;2.03;0.88;;;18.50;99.90;;;;;;5070494;28;20090;-74
2022/07/26 07:39:06;;;;;;;1.50;0.93;;;18.50;99.90;;;;;;5071756;28;20056;-73
2022/07/26 07:41:36;;;;;;;4.53;1.02;;;18.40;99.90;;;;;;5072940;28;20079;-75
2022/07/26 07:44:04;;;;;;;2.72;0.88;;;18.00;99.90;;;;;;5071970;28;20048;-75
2022/07/26 07:46:29;;;;;;;2.17;1.05;;;17.90;99.90;;;;;;5072988;28;20069;-73
2022/07/26 07:48:55;;;;;;;2.30;1.02;;;17.80;99.90;;;;;;5070793;28;20036;-72
2022/07/26 07:51:21;;;;;;;4.07;0.95;;;17.90;99.90;;;;;;5072540;28;20517;-73
2022/07/26 07:53:46;;;;;;;5.38;1.50;;;18.10;99.90;;;;;;5073532;28;20487;-73
2022/07/26 07:56:12;;;;;;;4.35;1.05;;;18.40;99.90;;;;;;5073123;28;20040;-76
2022/07/26 07:58:38;;;;;;;4.00;0.80;;;18.80;99.90;;;;;;5074742;28;20051;-74
2022/07/26 08:01:04;;;;;;;2.20;1.20;;;19.30;99.90;;;;;;5075741;28;20047;-73
2022/07/26 08:03:29;;;;;;;4.30;0.73;;;19.80;99.90;;;;;;5077640;28;20071;-74
2022/07/26 08:05:55;;;;;;;6.30;1.00;;;20.40;99.90;;;;;;5075443;28;20043;-72
2022/07/26 08:08:21;;;;;;;2.53;0.90;;;20.60;99.90;;;;;;5086315;28;20135;-74
2022/07/26 08:10:46;;;;;;;3.00;1.17;;;20.40;99.90;;;;;;5075171;28;20126;-74
2022/07/26 08:13:12;;;;;;;1.67;1.42;;;19.90;99.90;;;;;;5072754;28;20509;-74
2022/07/26 08:15:38;;;;;;;2.08;1.10;;;19.80;99.90;;;;;;5074305;28;20098;-72
2022/07/26 08:18:03;;;;;;;6.38;1.30;;;19.20;99.90;;;;;;5077814;28;20093;-73
2022/07/26 08:20:29;;;;;;;4.22;1.25;;;18.90;99.90;;;;;;5075820;28;20078;-74
2022/07/26 08:22:55;;;;;;;2.13;1.13;;;18.50;99.90;;;;;;5079671;28;20162;-75
2022/07/26 08:25:21;;;;;;;2.13;1.10;;;18.40;99.90;;;;;;4723604;28;10000045;-73
2022/07/26 08:27:47;;;;;;;2.28;1.20;;;18.40;99.90;;;;;;5073997;28;20052;-73
2022/07/26 08:30:13;;;;;;;3.75;1.58;;;18.50;99.90;;;;;;5078658;28;20055;-74
2022/07/26 08:32:38;;;;;;;5.35;1.27;;;18.40;99.90;;;;;;5068958;28;20051;-73
2022/07/26 08:35:05;;;;;;;3.55;1.42;;;18.50;99.90;;;;;;5073051;28;20586;-75
2022/07/26 08:37:30;;;;;;;5.18;1.40;;;18.60;99.90;;;;;;5069366;28;20045;-74
2022/07/26 08:39:56;;;;;;;3.92;1.05;;;18.80;99.90;;;;;;5072862;28;20135;-75
2022/07/26 08:42:22;;;;;;;4.03;1.48;;;19.00;99.90;;;;;;5075453;28;20065;-74
2022/07/26 08:44:48;;;;;;;2.95;1.23;;;19.20;99.90;;;;;;5076358;28;20143;-74
2022/07/26 08:47:17;;;;;;;3.95;0.85;;;19.10;99.90;;;;;;5074479;28;20781;-73
2022/07/26 08:49:43;;;;;;;4.32;1.30;;;19.00;99.90;;;;;;5073734;28;20494;-73
2022/07/26 08:52:11;;;;;;;3.45;1.00;;;19.00;99.90;;;;;;5081291;28;20768;-73
2022/07/26 08:54:46;;;;;;;2.15;0.90;;;19.10;99.90;;;;;;5072627;27;20050;-74
2022/07/26 08:57:13;;;;;;;3.85;1.40;;;19.20;99.90;;;;;;5073274;28;20354;-76
2022/07/26 08:59:40;;;;;;;4.20;1.10;;;19.40;99.80;;;;;;5076074;28;20039;-74
2022/07/26 09:02:08;;;;;;;2.55;0.90;;;19.70;99.20;;;;;;5071483;28;20101;-74
2022/07/26 09:04:45;;;;;;;2.55;0.95;;;19.90;99.90;;;;;;5074772;28;20278;-73
2022/07/26 09:07:17;;;;;;;3.10;1.70;;;20.10;99.90;;;;;;5074409;28;20051;-74
2022/07/26 09:10:06;;;;;;;3.72;1.38;;;19.90;99.90;;;;;;5073604;28;20071;-75
2022/07/26 09:12:32;;;;;;;2.78;1.52;;;19.70;99.00;;;;;;5073759;28;20050;-74
2022/07/26 09:14:59;;;;;;;3.08;1.20;;;19.40;99.90;;;;;;5076244;28;20084;-74
2022/07/26 09:17:41;;;;;;;5.70;1.45;;;19.00;99.90;;;;;;5065459;28;20267;-72
2022/07/26 09:20:09;;;;;;;3.90;1.15;;;18.70;99.90;;;;;;5071598;28;20188;-69
2022/07/26 09:22:55;;;;;;;9.23;2.20;;;18.70;99.90;;;;;;5077161;28;20131;-73
2022/07/26 09:25:23;;;;;;;3.47;1.50;;;18.80;99.90;;;;;;5066558;28;20052;-75
2022/07/26 09:27:50;;;;;;;6.32;2.10;;;18.90;99.90;;;;;;5073278;28;20060;-75
2022/07/26 09:30:16;;;;;;;1.77;1.30;;;19.10;99.90;;;;;;5078526;28;20051;-77
2022/07/26 09:32:56;;;;;;;5.50;1.50;;;19.20;99.90;;;;;;5076874;28;20054;-74
2022/07/26 09:35:21;;;;;;;6.90;1.77;;;19.20;99.90;;;;;;5077899;28;20051;-76
2022/07/26 09:37:47;;;;;;;3.45;1.38;;;18.90;99.90;;;;;;5072431;28;20048;-77
2022/07/26 09:40:17;;;;;;;5.72;1.92;;;18.60;99.90;;;;;;5074398;28;20052;-78
2022/07/26 09:43:02;;;;;;;6.38;1.83;;;18.30;99.90;;;;;;5075169;28;20055;-78
2022/07/26 09:45:29;;;;;;;5.75;1.52;;;18.10;99.90;;;;;;5076269;28;20043;-76
2022/07/26 09:47:55;;;;;;;3.85;2.33;;;18.20;99.90;;;;;;5077272;28;20127;-78
2022/07/26 09:50:24;;;;;;;6.50;2.03;;;18.60;99.90;;;;;;5076850;28;20070;-76
2022/07/26 09:53:08;;;;;;;4.60;1.70;;;19.50;99.90;;;;;;5072234;28;20079;-78
2022/07/26 09:55:52;;;;;;;4.82;1.70;;;20.30;99.90;;;;;;5077127;28;20754;-76
2022/07/26 09:58:18;;;;;;;6.13;2.17;;;20.50;99.90;;;;;;5074443;28;20048;-75
2022/07/26 10:00:43;;;;;;;3.30;1.50;;;20.50;99.90;;;;;;5076431;28;20044;-76
2022/07/26 10:03:10;;;;;;;6.63;1.95;;;20.40;99.90;;;;;;5077063;28;20054;-78
2022/07/26 10:05:36;;;;;;;5.32;2.13;;;20.00;99.70;;;;;;5074492;28;20044;-77
2022/07/26 10:08:03;;;;;;;9.88;2.60;;;19.60;99.90;;;;;;5076357;28;20152;-77
2022/07/26 10:10:44;;;;;;;5.80;2.08;;;19.60;99.90;;;;;;5074821;28;20232;-75
2022/07/26 10:13:10;;;;;;;6.20;2.38;;;19.80;99.10;;;;;;5078400;28;20585;-80
2022/07/26 10:15:36;;;;;;;8.30;3.63;;;20.20;99.90;;;;;;5072994;28;20132;-74
2022/07/26 10:18:04;;;;;;;6.65;2.55;;;20.90;99.90;;;;;;5078723;28;20056;-76
2022/07/26 10:20:43;;;;;;;7.25;2.50;;;20.90;99.10;;;;;;5074296;28;20048;-75
2022/07/26 10:23:45;;;;;;;6.78;2.38;;;20.60;97.70;;;;;;5078915;28;20052;-77
2022/07/26 10:26:33;;;;;;;9.30;3.90;;;19.80;98.60;;;;;;4979506;28;20061;-76
2022/07/26 10:29:19;;;;;;;5.85;2.42;;;19.70;99.90;;;;;;5071723;28;20059;-79
2022/07/26 10:31:45;;;;;;;8.13;2.47;;;19.30;98.90;;;;;;5073508;28;20454;-78
2022/07/26 10:34:34;;;;;;;9.82;2.45;;;19.10;99.90;;;;;;5086567;28;20051;-76
2022/07/26 10:37:05;;;;;;;6.80;2.00;;;19.20;98.00;;;;;;5089447;28;20065;-75
2022/07/26 10:39:31;;;;;;;5.70;2.22;;;19.60;97.50;;;;;;5076086;28;20067;-76
2022/07/26 10:42:00;;;;;;;7.78;2.67;;;19.80;96.90;;;;;;5079559;28;20525;-78
2022/07/26 10:44:30;;;;;;;5.05;1.50;;;20.10;97.10;;;;;;5079923;28;20052;-76
2022/07/26 10:47:06;;;;;;;4.05;1.77;;;20.30;96.50;;;;;;5070097;28;20048;-77
2022/07/26 10:49:40;;;;;;;8.75;2.67;;;20.10;96.40;;;;;;5074837;28;20084;-77
2022/07/26 10:52:11;;;;;;;5.78;1.90;;;19.90;97.10;;;;;;5088723;28;20048;-78
2022/07/26 10:55:02;;;;;;;7.13;1.90;;;19.90;97.00;;;;;;5074054;28;20597;-77
2022/07/26 10:57:30;;;;;;;6.30;2.53;;;19.90;95.40;;;;;;5071018;28;20048;-78
2022/07/26 10:59:57;;;;;;;6.45;1.85;;;20.10;96.50;;;;;;5074417;28;20048;-77
2022/07/26 11:02:31;;;;;;;6.25;1.58;;;20.30;96.40;;;;;;5071370;28;20044;-76
2022/07/26 11:05:17;;;;;;;2.03;1.40;;;20.60;96.00;;;;;;5075641;28;20104;-79
2022/07/26 11:07:58;;;;;;;4.63;2.00;;;20.60;94.70;;;;;;5073644;28;20597;-74
2022/07/26 11:10:26;;;;;;;6.50;2.05;;;20.90;93.60;;;;;;5069773;28;20055;-75
2022/07/26 11:13:16;;;;;;;3.65;1.50;;;21.20;94.40;;;;;;5070702;28;20040;-78
2022/07/26 11:15:48;;;;;;;2.47;1.70;;;21.60;93.10;;;;;;5082236;28;20566;-78
2022/07/26 11:18:21;;;;;;;3.97;1.75;;;21.40;93.70;;;;;;5072799;28;20054;-75
2022/07/26 11:20:49;;;;;;;5.28;2.40;;;21.00;92.80;;;;;;5087527;28;20051;-75
2022/07/26 11:23:29;;;;;;;3.53;1.60;;;20.60;92.90;;;;;;5078502;28;20051;-77
2022/07/26 11:26:04;;;;;;;4.07;2.05;;;20.70;93.50;;;;;;5083717;28;20150;-78
2022/07/26 11:28:41;;;;;;;4.88;1.70;;;20.70;94.00;;;;;;5078531;28;20716;-78
2022/07/26 11:31:08;;;;;;;4.80;1.42;;;20.90;93.80;;;;;;5075898;28;20174;-77
2022/07/26 11:33:43;;;;;;;4.47;1.05;;;21.10;92.90;;;;;;5073689;28;20056;-74
2022/07/26 11:36:10;;;;;;;3.03;2.08;;;21.40;91.80;;;;;;5074288;28;20050;-76
2022/07/26 11:38:53;;;;;;;4.97;1.63;;;21.40;91.80;;;;;;5069685;28;20044;-75
2022/07/26 11:41:26;;;;;;;2.38;1.27;;;21.80;91.60;;;;;;5074706;28;20075;-74
2022/07/26 11:43:53;;;;;;;3.88;1.67;;;22.10;92.10;;;;;;5071464;28;20680;-76
2022/07/26 11:46:20;;;;;;;5.82;1.95;;;22.30;90.50;;;;;;5075014;28;20055;-75
2022/07/26 11:48:48;;;;;;;2.15;1.33;;;22.10;90.20;;;;;;5075908;28;20040;-78
2022/07/26 11:51:19;;;;;;;4.25;1.30;;;22.00;91.70;;;;;;5070177;28;20048;-78
2022/07/26 11:53:46;;;;;;;2.55;1.65;;;21.50;90.00;;;;;;5074496;28;20044;-77
2022/07/26 11:56:18;;;;;;;4.90;1.33;;;21.40;91.00;;;;;;5077394;28;20048;-78
2022/07/26 11:58:49;;;;;;;2.50;1.33;;;21.70;91.10;;;;;;5074351;28;20290;-79
2022/07/26 12:01:19;;;;;;;4.38;1.48;;;21.70;89.70;;;;;;5073611;28;20075;-78
2022/07/26 12:03:47;;;;;;;4.10;1.48;;;21.50;89.40;;;;;;5075954;28;20107;-78
2022/07/26 12:06:16;;;;;;;2.47;1.23;;;21.40;89.50;;;;;;5072776;28;20044;-78
2022/07/26 12:08:51;;;;;;;4.22;1.27;;;21.40;90.50;;;;;;5075908;28;20059;-80
2022/07/26 12:11:17;;;;;;;3.70;1.30;;;21.10;90.30;;;;;;5070792;28;20047;-78
2022/07/26 12:13:47;;;;;;;1.65;1.10;;;20.80;90.70;;;;;;5073713;28;20050;-79
2022/07/26 12:16:32;;;;;;;2.08;1.00;;;20.80;90.60;;;;;;5073500;28;20981;-76
2022/07/26 12:18:57;;;;;;;3.13;1.52;;;20.60;90.50;;;;;;5075854;28;20062;-78
2022/07/26 12:21:40;;;;;;;5.00;1.52;;;20.70;91.00;;;;;;5072154;28;20054;-78
2022/07/26 12:24:07;;;;;;;1.73;1.20;;;20.80;90.40;;;;;;5085919;28;20121;-74
2022/07/26 12:26:33;;;;;;;1.55;1.00;;;20.60;89.20;;;;;;5071392;28;20579;-78
2022/07/26 12:29:44;;;;;;;2.08;1.00;;;20.70;89.70;;;;;;5075961;28;20128;-76
2022/07/26 12:31:58;;;;;;;3.45;1.30;;;20.70;90.30;;;;;;5059735;28;20054;-76
2022/07/26 12:34:24;;;;;;;4.65;1.20;;;20.90;90.50;;;;;;5074261;28;20725;-77
2022/07/26 12:36:50;;;;;;;2.80;1.00;;;20.90;89.70;;;;;;5076813;28;20043;-75
2022/07/26 12:39:22;;;;;;;3.22;1.20;;;21.00;90.50;;;;;;5076870;28;20048;-74
2022/07/26 12:41:49;;;;;;;7.43;1.10;;;21.10;90.40;;;;;;5071086;28;20047;-75
2022/07/26 12:44:15;;;;;;;2.60;1.33;;;21.20;88.70;;;;;;5072283;28;20156;-75
2022/07/26 12:46:46;;;;;;;3.15;1.15;;;21.40;89.30;;;;;;5070602;28;20113;-73
2022/07/26 12:49:12;;;;;;;2.97;1.10;;;21.60;88.40;;;;;;5073139;28;20052;-77
2022/07/26 12:51:38;;;;;;;3.30;1.10;;;21.70;89.30;;;;;;5065522;28;20067;-76